RYR6411 EYKA-LIBP
Flight info
| Callsign | RYR6411 |
|---|---|
| Flight time | N/A |
| Altitude | 38000 |
| Route | KAZLA DCT BOKSU M857 SUWGI M985 EVINA N744 TUSIN DCT LEDVA DCT RADLY DCT ALIVO DCT IBENI DCT KEGED DCT INKIM |
| Aircraft | B738/M-SDE2E3FGHIRWXY/LB1 |
Departure
| Time | 2026-04-18 10:38 |
|---|---|
| Airport | Kaunas International Airport (EYKA) |
Arrival
| Time | N/A |
|---|---|
| Airport | Abruzzo Airport (LIBP) |
| Time | Latitude | Longitude | Altitude | Speed | Heading |
|---|---|---|---|---|---|
| 2026-04-18 10:21 | 54.96592 | 24.07399 | 243 ft | 0 kts | 104° |
| 2026-04-18 10:35 | 54.96585 | 24.07443 | 242 ft | 8 kts | 112° |
| 2026-04-18 10:36 | 54.96532 | 24.07485 | 243 ft | 8 kts | 190° |
| 2026-04-18 10:36 | 54.96504 | 24.07416 | 243 ft | 7 kts | 259° |
| 2026-04-18 10:36 | 54.96461 | 24.07332 | 243 ft | 11 kts | 179° |
| 2026-04-18 10:36 | 54.96390 | 24.07348 | 243 ft | 9 kts | 175° |
| 2026-04-18 10:37 | 54.96342 | 24.07397 | 244 ft | 7 kts | 107° |
| 2026-04-18 10:37 | 54.96340 | 24.07434 | 244 ft | 0 kts | 84° |
| 2026-04-18 10:37 | 54.96342 | 24.07463 | 244 ft | 0 kts | 84° |
| 2026-04-18 10:37 | 54.96342 | 24.07464 | 244 ft | 0 kts | 84° |
| 2026-04-18 10:38 | 54.96355 | 24.07710 | 244 ft | 55 kts | 84° |
| 2026-04-18 10:38 | 54.96407 | 24.08785 | 244 ft | 123 kts | 85° |
| 2026-04-18 10:38 | 54.96498 | 24.10600 | 306 ft | 172 kts | 82° |
| 2026-04-18 10:38 | 54.96577 | 24.12643 | 1056 ft | 171 kts | 82° |
| 2026-04-18 10:39 | 54.96653 | 24.14683 | 1807 ft | 171 kts | 80° |
| 2026-04-18 10:39 | 54.96753 | 24.16698 | 2441 ft | 168 kts | 79° |
| 2026-04-18 10:39 | 54.96870 | 24.18713 | 2976 ft | 169 kts | 79° |
| 2026-04-18 10:39 | 54.96981 | 24.20728 | 3494 ft | 171 kts | 80° |
| 2026-04-18 10:40 | 54.97075 | 24.22860 | 3849 ft | 185 kts | 85° |
| 2026-04-18 10:40 | 54.96861 | 24.25122 | 4180 ft | 205 kts | 111° |
| 2026-04-18 10:40 | 54.95807 | 24.27000 | 4408 ft | 235 kts | 152° |
| 2026-04-18 10:40 | 54.94171 | 24.27438 | 4765 ft | 254 kts | 188° |
| 2026-04-18 10:41 | 54.92513 | 24.26144 | 5011 ft | 273 kts | 224° |
| 2026-04-18 10:41 | 54.91403 | 24.23459 | 5547 ft | 276 kts | 248° |
| 2026-04-18 10:41 | 54.90656 | 24.20414 | 6209 ft | 278 kts | 251° |
| 2026-04-18 10:41 | 54.89949 | 24.17260 | 6785 ft | 286 kts | 252° |
| 2026-04-18 10:42 | 54.89232 | 24.14030 | 7553 ft | 286 kts | 249° |
| 2026-04-18 10:42 | 54.88191 | 24.11113 | 8215 ft | 293 kts | 235° |
| 2026-04-18 10:42 | 54.86872 | 24.08393 | 8866 ft | 297 kts | 232° |
| 2026-04-18 10:42 | 54.85500 | 24.05713 | 9543 ft | 299 kts | 232° |
| 2026-04-18 10:43 | 54.84136 | 24.02976 | 10181 ft | 302 kts | 234° |
| 2026-04-18 10:43 | 54.82774 | 24.00143 | 10676 ft | 311 kts | 235° |
| 2026-04-18 10:43 | 54.81383 | 23.97182 | 11019 ft | 324 kts | 235° |
| 2026-04-18 10:43 | 54.79933 | 23.94067 | 11332 ft | 339 kts | 235° |
| 2026-04-18 10:44 | 54.78425 | 23.90832 | 11675 ft | 354 kts | 235° |
| 2026-04-18 10:44 | 54.76866 | 23.87496 | 12136 ft | 363 kts | 235° |
| 2026-04-18 10:44 | 54.75277 | 23.84117 | 12785 ft | 367 kts | 235° |
| 2026-04-18 10:44 | 54.73644 | 23.80654 | 13413 ft | 372 kts | 235° |
| 2026-04-18 10:45 | 54.72002 | 23.77181 | 14095 ft | 375 kts | 236° |
| 2026-04-18 10:45 | 54.70357 | 23.73702 | 14763 ft | 378 kts | 236° |
| 2026-04-18 10:45 | 54.68700 | 23.70201 | 15470 ft | 381 kts | 236° |
| 2026-04-18 10:45 | 54.67017 | 23.66648 | 16124 ft | 384 kts | 236° |
| 2026-04-18 10:46 | 54.65324 | 23.63075 | 16753 ft | 388 kts | 236° |
| 2026-04-18 10:46 | 54.63602 | 23.59447 | 17377 ft | 392 kts | 236° |
| 2026-04-18 10:46 | 54.61886 | 23.55835 | 17978 ft | 396 kts | 236° |
| 2026-04-18 10:46 | 54.60138 | 23.52163 | 18557 ft | 400 kts | 236° |
| 2026-04-18 10:47 | 54.58361 | 23.48438 | 19177 ft | 403 kts | 236° |
| 2026-04-18 10:47 | 54.56571 | 23.44689 | 19743 ft | 407 kts | 236° |
| 2026-04-18 10:47 | 54.54778 | 23.40941 | 20305 ft | 411 kts | 236° |
| 2026-04-18 10:47 | 54.52961 | 23.37149 | 20885 ft | 414 kts | 236° |
| 2026-04-18 10:48 | 54.51082 | 23.33373 | 21402 ft | 420 kts | 233° |
| 2026-04-18 10:48 | 54.49027 | 23.29786 | 21935 ft | 427 kts | 227° |
| 2026-04-18 10:48 | 54.46743 | 23.26499 | 22470 ft | 433 kts | 220° |
| 2026-04-18 10:48 | 54.44205 | 23.23609 | 23039 ft | 439 kts | 214° |
| 2026-04-18 10:49 | 54.41549 | 23.21028 | 23460 ft | 445 kts | 211° |
| 2026-04-18 10:49 | 54.38777 | 23.18538 | 24015 ft | 448 kts | 210° |
| 2026-04-18 10:49 | 54.36008 | 23.16120 | 24441 ft | 453 kts | 210° |
| 2026-04-18 10:49 | 54.33176 | 23.13654 | 24937 ft | 455 kts | 210° |
| 2026-04-18 10:50 | 54.30378 | 23.11196 | 25420 ft | 458 kts | 211° |
| 2026-04-18 10:50 | 54.27541 | 23.08674 | 25832 ft | 462 kts | 211° |
| 2026-04-18 10:50 | 54.24686 | 23.06112 | 26246 ft | 466 kts | 211° |
| 2026-04-18 10:50 | 54.21836 | 23.03540 | 26676 ft | 468 kts | 211° |
| 2026-04-18 10:51 | 54.18939 | 23.00913 | 27065 ft | 472 kts | 211° |
| 2026-04-18 10:51 | 54.16034 | 22.98274 | 27498 ft | 475 kts | 211° |
| 2026-04-18 10:51 | 54.13099 | 22.95606 | 27928 ft | 477 kts | 212° |
| 2026-04-18 10:51 | 54.10151 | 22.92927 | 28298 ft | 481 kts | 211° |
| 2026-04-18 10:52 | 54.07172 | 22.90224 | 28661 ft | 484 kts | 212° |
| 2026-04-18 10:52 | 54.04192 | 22.87441 | 29098 ft | 485 kts | 213° |
| 2026-04-18 10:52 | 54.01257 | 22.84547 | 29404 ft | 488 kts | 214° |
| 2026-04-18 10:52 | 53.98347 | 22.81582 | 29879 ft | 488 kts | 215° |
| 2026-04-18 10:53 | 53.95441 | 22.78592 | 30476 ft | 484 kts | 216° |
| 2026-04-18 10:53 | 53.92592 | 22.75656 | 30952 ft | 484 kts | 216° |
| 2026-04-18 10:53 | 53.89711 | 22.72695 | 31369 ft | 483 kts | 216° |
| 2026-04-18 10:53 | 53.86791 | 22.69710 | 31747 ft | 483 kts | 216° |
| 2026-04-18 10:54 | 53.83930 | 22.66800 | 32105 ft | 483 kts | 216° |
| 2026-04-18 10:54 | 53.81069 | 22.63903 | 32506 ft | 482 kts | 216° |
| 2026-04-18 10:54 | 53.78184 | 22.60996 | 32846 ft | 481 kts | 216° |
| 2026-04-18 10:54 | 53.75288 | 22.58088 | 33197 ft | 481 kts | 216° |
| 2026-04-18 10:55 | 53.72444 | 22.55243 | 33516 ft | 481 kts | 216° |
| 2026-04-18 10:55 | 53.69550 | 22.52354 | 33803 ft | 481 kts | 216° |
| 2026-04-18 10:55 | 53.66657 | 22.49473 | 34117 ft | 481 kts | 216° |
| 2026-04-18 10:55 | 53.63810 | 22.46643 | 34424 ft | 480 kts | 216° |
| 2026-04-18 10:56 | 53.60909 | 22.43764 | 34720 ft | 480 kts | 216° |
| 2026-04-18 10:56 | 53.58067 | 22.40945 | 34931 ft | 480 kts | 216° |
| 2026-04-18 10:56 | 53.55179 | 22.38087 | 35171 ft | 479 kts | 216° |
| 2026-04-18 10:56 | 53.52301 | 22.35243 | 35407 ft | 478 kts | 216° |
| 2026-04-18 10:57 | 53.49443 | 22.32424 | 35631 ft | 476 kts | 215° |
| 2026-04-18 10:57 | 53.46622 | 22.29646 | 35827 ft | 475 kts | 214° |
| 2026-04-18 10:57 | 53.43750 | 22.26820 | 35979 ft | 476 kts | 214° |
| 2026-04-18 10:57 | 53.40920 | 22.24040 | 36112 ft | 476 kts | 214° |
| 2026-04-18 10:58 | 53.38053 | 22.21228 | 36153 ft | 478 kts | 214° |
| 2026-04-18 10:58 | 53.32341 | 22.15643 | 36172 ft | 475 kts | 214° |
| 2026-04-18 10:59 | 53.26630 | 22.10080 | 36154 ft | 470 kts | 214° |
| 2026-04-18 10:59 | 53.20980 | 22.04591 | 36168 ft | 475 kts | 214° |
| 2026-04-18 11:00 | 53.15252 | 21.99036 | 36158 ft | 475 kts | 214° |
| 2026-04-18 11:00 | 53.09542 | 21.93524 | 36158 ft | 475 kts | 214° |
| 2026-04-18 11:01 | 53.03831 | 21.88025 | 36167 ft | 475 kts | 214° |
| 2026-04-18 11:01 | 52.98094 | 21.82517 | 36155 ft | 475 kts | 214° |
| 2026-04-18 11:02 | 52.89511 | 21.74312 | 36159 ft | 475 kts | 215° |
| 2026-04-18 11:02 | 52.83798 | 21.68875 | 36163 ft | 475 kts | 215° |
| 2026-04-18 11:03 | 52.78044 | 21.63411 | 36164 ft | 477 kts | 215° |
| 2026-04-18 11:03 | 52.72323 | 21.57995 | 36159 ft | 476 kts | 214° |
| 2026-04-18 11:04 | 52.66558 | 21.52555 | 36165 ft | 476 kts | 215° |
| 2026-04-18 11:04 | 52.60842 | 21.47179 | 36162 ft | 475 kts | 214° |
| 2026-04-18 11:05 | 52.55112 | 21.41804 | 36168 ft | 475 kts | 215° |
| 2026-04-18 11:05 | 52.49356 | 21.36420 | 36170 ft | 476 kts | 215° |
| 2026-04-18 11:06 | 52.43583 | 21.31033 | 36171 ft | 477 kts | 214° |
| 2026-04-18 11:06 | 52.37801 | 21.25657 | 36171 ft | 477 kts | 214° |
| 2026-04-18 11:07 | 52.32026 | 21.20301 | 36172 ft | 476 kts | 214° |
| 2026-04-18 11:07 | 52.26283 | 21.14992 | 36175 ft | 475 kts | 214° |
| 2026-04-18 11:08 | 52.20517 | 21.09678 | 36186 ft | 477 kts | 214° |
| 2026-04-18 11:08 | 52.14734 | 21.04364 | 36180 ft | 478 kts | 214° |
| 2026-04-18 11:09 | 52.08945 | 20.99063 | 36177 ft | 476 kts | 214° |
| 2026-04-18 11:09 | 52.03154 | 20.93775 | 36182 ft | 477 kts | 214° |
| 2026-04-18 11:10 | 51.97363 | 20.88501 | 36177 ft | 477 kts | 214° |
| 2026-04-18 11:10 | 51.91586 | 20.83255 | 36177 ft | 475 kts | 214° |
| 2026-04-18 11:11 | 51.85822 | 20.78037 | 36206 ft | 478 kts | 214° |
| 2026-04-18 11:11 | 51.82899 | 20.75395 | 36368 ft | 479 kts | 214° |
| 2026-04-18 11:11 | 51.80019 | 20.72797 | 36611 ft | 478 kts | 214° |
| 2026-04-18 11:12 | 51.77091 | 20.70162 | 36925 ft | 476 kts | 214° |
| 2026-04-18 11:12 | 51.74217 | 20.67580 | 37256 ft | 475 kts | 214° |
| 2026-04-18 11:12 | 51.71321 | 20.64984 | 37483 ft | 474 kts | 213° |
| 2026-04-18 11:12 | 51.68419 | 20.62383 | 37695 ft | 474 kts | 214° |
| 2026-04-18 11:13 | 51.65522 | 20.59788 | 37875 ft | 474 kts | 214° |
| 2026-04-18 11:13 | 51.62651 | 20.57221 | 38089 ft | 473 kts | 214° |
| 2026-04-18 11:13 | 51.56892 | 20.52081 | 38174 ft | 474 kts | 214° |
| 2026-04-18 11:14 | 51.51126 | 20.46954 | 38181 ft | 473 kts | 214° |
| 2026-04-18 11:14 | 51.45359 | 20.41841 | 38172 ft | 474 kts | 213° |
| 2026-04-18 11:15 | 51.39587 | 20.36700 | 38181 ft | 472 kts | 215° |
| 2026-04-18 11:15 | 51.34154 | 20.30912 | 38170 ft | 468 kts | 221° |
| 2026-04-18 11:16 | 51.28981 | 20.24611 | 38173 ft | 468 kts | 223° |
| 2026-04-18 11:16 | 51.23837 | 20.18241 | 38179 ft | 467 kts | 223° |
| 2026-04-18 11:17 | 51.18691 | 20.11940 | 38178 ft | 467 kts | 222° |
| 2026-04-18 11:17 | 51.13498 | 20.05665 | 38179 ft | 468 kts | 222° |
| 2026-04-18 11:18 | 51.08279 | 19.99414 | 38184 ft | 467 kts | 222° |
| 2026-04-18 11:18 | 51.03099 | 19.93259 | 38179 ft | 467 kts | 222° |
| 2026-04-18 11:19 | 50.97855 | 19.87055 | 38184 ft | 467 kts | 221° |
| 2026-04-18 11:19 | 50.92676 | 19.80944 | 38185 ft | 466 kts | 222° |
| 2026-04-18 11:20 | 50.87436 | 19.74773 | 38181 ft | 466 kts | 222° |
| 2026-04-18 11:20 | 50.82312 | 19.68756 | 38182 ft | 467 kts | 221° |
| 2026-04-18 11:21 | 50.77102 | 19.62656 | 38192 ft | 466 kts | 222° |
| 2026-04-18 11:21 | 50.71898 | 19.56582 | 38185 ft | 465 kts | 222° |
| 2026-04-18 11:22 | 50.66678 | 19.50505 | 38194 ft | 465 kts | 221° |
| 2026-04-18 11:22 | 50.61475 | 19.44463 | 38190 ft | 465 kts | 222° |
| 2026-04-18 11:23 | 50.56251 | 19.38412 | 38191 ft | 464 kts | 222° |
| 2026-04-18 11:23 | 50.51039 | 19.32395 | 38196 ft | 467 kts | 221° |
| 2026-04-18 11:24 | 50.45813 | 19.26382 | 38192 ft | 464 kts | 221° |
| 2026-04-18 11:24 | 50.40597 | 19.20395 | 38196 ft | 464 kts | 221° |
| 2026-04-18 11:25 | 50.35371 | 19.14412 | 38193 ft | 464 kts | 221° |
| 2026-04-18 11:25 | 50.30158 | 19.08460 | 38189 ft | 464 kts | 221° |
| 2026-04-18 11:26 | 50.24943 | 19.02523 | 38183 ft | 464 kts | 221° |
| 2026-04-18 11:26 | 50.19961 | 18.96869 | 38187 ft | 462 kts | 221° |
| 2026-04-18 11:27 | 50.14767 | 18.90988 | 38186 ft | 464 kts | 221° |
| 2026-04-18 11:27 | 50.09470 | 18.85005 | 38184 ft | 464 kts | 221° |
| 2026-04-18 11:28 | 50.04195 | 18.79067 | 38183 ft | 462 kts | 220° |
| 2026-04-18 11:28 | 49.98983 | 18.73215 | 38182 ft | 462 kts | 220° |
| 2026-04-18 11:29 | 49.93784 | 18.67395 | 38183 ft | 462 kts | 221° |
| 2026-04-18 11:29 | 49.88564 | 18.61564 | 38175 ft | 462 kts | 221° |
| 2026-04-18 11:30 | 49.83574 | 18.55380 | 38181 ft | 457 kts | 228° |
| 2026-04-18 11:30 | 49.79089 | 18.48420 | 38179 ft | 454 kts | 232° |
| 2026-04-18 11:31 | 49.74788 | 18.41249 | 38184 ft | 451 kts | 233° |
| 2026-04-18 11:31 | 49.70541 | 18.34138 | 38188 ft | 453 kts | 232° |
| 2026-04-18 11:32 | 49.66249 | 18.27025 | 38180 ft | 453 kts | 232° |
| 2026-04-18 11:32 | 49.61942 | 18.19959 | 38182 ft | 451 kts | 232° |
| 2026-04-18 11:33 | 49.57603 | 18.12888 | 38182 ft | 452 kts | 232° |
| 2026-04-18 11:33 | 49.53266 | 18.05850 | 38188 ft | 451 kts | 232° |
| 2026-04-18 11:34 | 49.48907 | 17.98806 | 38175 ft | 451 kts | 232° |
| 2026-04-18 11:34 | 49.44559 | 17.91796 | 38176 ft | 452 kts | 231° |
| 2026-04-18 11:35 | 49.40209 | 17.84804 | 38170 ft | 450 kts | 231° |
| 2026-04-18 11:35 | 49.35860 | 17.77833 | 38162 ft | 450 kts | 231° |
| 2026-04-18 11:36 | 49.31523 | 17.70898 | 38166 ft | 450 kts | 232° |
| 2026-04-18 11:36 | 49.27184 | 17.63980 | 38169 ft | 449 kts | 231° |
| 2026-04-18 11:37 | 49.22819 | 17.57041 | 38170 ft | 449 kts | 231° |
| 2026-04-18 11:37 | 49.18481 | 17.50161 | 38169 ft | 449 kts | 231° |
| 2026-04-18 11:38 | 49.14131 | 17.43282 | 38173 ft | 448 kts | 231° |
| 2026-04-18 11:38 | 49.09815 | 17.36474 | 38175 ft | 449 kts | 231° |
| 2026-04-18 11:39 | 49.05445 | 17.29600 | 38178 ft | 449 kts | 230° |
| 2026-04-18 11:39 | 49.01096 | 17.22779 | 38176 ft | 449 kts | 230° |
| 2026-04-18 11:40 | 48.96720 | 17.15936 | 38171 ft | 447 kts | 231° |
| 2026-04-18 11:40 | 48.92365 | 17.09140 | 38166 ft | 447 kts | 231° |
| 2026-04-18 11:41 | 48.88035 | 17.02401 | 38165 ft | 446 kts | 231° |
| 2026-04-18 11:41 | 48.83709 | 16.95685 | 38162 ft | 446 kts | 230° |
| 2026-04-18 11:42 | 48.79335 | 16.88914 | 38160 ft | 446 kts | 230° |
| 2026-04-18 11:42 | 48.74956 | 16.82254 | 38160 ft | 448 kts | 228° |
| 2026-04-18 11:43 | 48.69982 | 16.76444 | 38161 ft | 455 kts | 216° |
| 2026-04-18 11:43 | 48.64429 | 16.71821 | 38160 ft | 457 kts | 211° |
| 2026-04-18 11:44 | 48.58744 | 16.67484 | 38162 ft | 457 kts | 211° |
| 2026-04-18 11:44 | 48.53044 | 16.63136 | 38162 ft | 458 kts | 211° |
| 2026-04-18 11:45 | 48.47358 | 16.58743 | 38163 ft | 458 kts | 212° |
| 2026-04-18 11:45 | 48.41687 | 16.54330 | 38163 ft | 456 kts | 212° |
| 2026-04-18 11:46 | 48.36009 | 16.49899 | 38165 ft | 457 kts | 212° |
| 2026-04-18 11:46 | 48.30375 | 16.45507 | 38167 ft | 455 kts | 212° |
| 2026-04-18 11:47 | 48.24711 | 16.41099 | 38173 ft | 457 kts | 212° |
| 2026-04-18 11:47 | 48.19059 | 16.36710 | 38170 ft | 457 kts | 212° |
| 2026-04-18 11:48 | 48.13406 | 16.32331 | 38170 ft | 456 kts | 211° |
| 2026-04-18 11:48 | 48.07742 | 16.27956 | 38168 ft | 457 kts | 211° |
| 2026-04-18 11:49 | 48.02070 | 16.23585 | 38165 ft | 457 kts | 211° |
| 2026-04-18 11:49 | 47.96373 | 16.19205 | 38166 ft | 457 kts | 211° |
| 2026-04-18 11:50 | 47.90697 | 16.14855 | 38163 ft | 457 kts | 211° |
| 2026-04-18 11:50 | 47.85086 | 16.10566 | 38164 ft | 456 kts | 211° |
| 2026-04-18 11:51 | 47.79398 | 16.06225 | 38163 ft | 457 kts | 211° |
| 2026-04-18 11:51 | 47.73743 | 16.01919 | 38159 ft | 457 kts | 211° |
| 2026-04-18 11:52 | 47.68084 | 15.97622 | 38160 ft | 456 kts | 211° |
| 2026-04-18 11:52 | 47.62447 | 15.93356 | 38157 ft | 456 kts | 211° |
| 2026-04-18 11:53 | 47.56793 | 15.89087 | 38155 ft | 457 kts | 211° |
| 2026-04-18 11:53 | 47.51126 | 15.84816 | 38158 ft | 455 kts | 211° |
| 2026-04-18 11:54 | 47.45452 | 15.80550 | 38154 ft | 457 kts | 211° |
| 2026-04-18 11:54 | 47.39746 | 15.76271 | 38154 ft | 455 kts | 211° |
| 2026-04-18 11:55 | 47.34087 | 15.72039 | 38155 ft | 455 kts | 211° |
| 2026-04-18 11:55 | 47.28459 | 15.67839 | 38155 ft | 456 kts | 211° |
| 2026-04-18 11:56 | 47.22791 | 15.63620 | 38151 ft | 456 kts | 211° |
| 2026-04-18 11:56 | 47.17127 | 15.59414 | 38153 ft | 456 kts | 211° |
| 2026-04-18 11:57 | 47.11444 | 15.55205 | 38155 ft | 455 kts | 210° |
| 2026-04-18 11:57 | 47.05740 | 15.50987 | 38149 ft | 456 kts | 210° |
| 2026-04-18 11:58 | 47.00077 | 15.46811 | 38151 ft | 455 kts | 211° |
| 2026-04-18 11:58 | 46.94428 | 15.42656 | 38147 ft | 455 kts | 211° |
| 2026-04-18 11:59 | 46.88779 | 15.38510 | 38151 ft | 454 kts | 211° |
| 2026-04-18 11:59 | 46.83128 | 15.34373 | 38145 ft | 455 kts | 210° |
| 2026-04-18 12:00 | 46.77510 | 15.30271 | 38149 ft | 456 kts | 210° |
| 2026-04-18 12:00 | 46.71846 | 15.26145 | 38152 ft | 456 kts | 210° |
| 2026-04-18 12:01 | 46.63181 | 15.20261 | 38161 ft | 458 kts | 203° |
| 2026-04-18 12:02 | 46.57107 | 15.17406 | 38161 ft | 458 kts | 199° |